sensor_id;sensor_type;location;lat;lon;timestamp;P1;durP1;ratioP1;P2;durP2;ratioP2
10116;SDS011;5098;48.792;9.012;2022-07-05T00:00:37;4.90;;;3.77;;
10116;SDS011;5098;48.792;9.012;2022-07-05T00:03:03;5.03;;;3.13;;
10116;SDS011;5098;48.792;9.012;2022-07-05T00:05:29;3.20;;;3.00;;
10116;SDS011;5098;48.792;9.012;2022-07-05T00:07:55;3.40;;;3.10;;
10116;SDS011;5098;48.792;9.012;2022-07-05T00:10:21;7.00;;;4.10;;
10116;SDS011;5098;48.792;9.012;2022-07-05T00:12:47;3.90;;;3.37;;
10116;SDS011;5098;48.792;9.012;2022-07-05T00:15:13;4.13;;;3.73;;
10116;SDS011;5098;48.792;9.012;2022-07-05T00:17:39;5.13;;;3.90;;
10116;SDS011;5098;48.792;9.012;2022-07-05T00:20:05;3.90;;;3.60;;
10116;SDS011;5098;48.792;9.012;2022-07-05T00:22:32;5.30;;;4.03;;
10116;SDS011;5098;48.792;9.012;2022-07-05T00:24:58;3.93;;;3.63;;
10116;SDS011;5098;48.792;9.012;2022-07-05T00:27:24;5.10;;;3.90;;
10116;SDS011;5098;48.792;9.012;2022-07-05T00:29:50;5.53;;;3.90;;
10116;SDS011;5098;48.792;9.012;2022-07-05T00:32:16;5.33;;;4.17;;
10116;SDS011;5098;48.792;9.012;2022-07-05T00:34:42;4.33;;;3.60;;
10116;SDS011;5098;48.792;9.012;2022-07-05T00:37:08;4.17;;;3.60;;
10116;SDS011;5098;48.792;9.012;2022-07-05T00:39:34;3.73;;;3.43;;
10116;SDS011;5098;48.792;9.012;2022-07-05T00:42:01;4.03;;;3.73;;
10116;SDS011;5098;48.792;9.012;2022-07-05T00:44:28;4.90;;;3.67;;
10116;SDS011;5098;48.792;9.012;2022-07-05T00:46:55;4.07;;;3.67;;
10116;SDS011;5098;48.792;9.012;2022-07-05T00:49:21;4.43;;;4.03;;
10116;SDS011;5098;48.792;9.012;2022-07-05T00:51:47;6.20;;;3.37;;
10116;SDS011;5098;48.792;9.012;2022-07-05T00:54:13;3.50;;;3.23;;
10116;SDS011;5098;48.792;9.012;2022-07-05T00:56:40;3.70;;;3.40;;
10116;SDS011;5098;48.792;9.012;2022-07-05T00:59:06;3.63;;;3.30;;
10116;SDS011;5098;48.792;9.012;2022-07-05T01:01:32;6.57;;;3.70;;
10116;SDS011;5098;48.792;9.012;2022-07-05T01:03:58;3.70;;;3.40;;
10116;SDS011;5098;48.792;9.012;2022-07-05T01:06:24;3.80;;;3.50;;
10116;SDS011;5098;48.792;9.012;2022-07-05T01:08:50;4.27;;;3.33;;
10116;SDS011;5098;48.792;9.012;2022-07-05T01:11:16;4.87;;;3.87;;
10116;SDS011;5098;48.792;9.012;2022-07-05T01:13:42;3.97;;;3.67;;
10116;SDS011;5098;48.792;9.012;2022-07-05T01:16:08;6.57;;;3.33;;
10116;SDS011;5098;48.792;9.012;2022-07-05T01:18:34;5.13;;;3.60;;
10116;SDS011;5098;48.792;9.012;2022-07-05T01:21:01;3.70;;;3.40;;
10116;SDS011;5098;48.792;9.012;2022-07-05T01:23:28;4.33;;;3.57;;
10116;SDS011;5098;48.792;9.012;2022-07-05T01:25:55;4.50;;;4.10;;
10116;SDS011;5098;48.792;9.012;2022-07-05T01:28:21;3.77;;;3.50;;
10116;SDS011;5098;48.792;9.012;2022-07-05T01:30:47;4.60;;;4.00;;
10116;SDS011;5098;48.792;9.012;2022-07-05T01:33:13;3.90;;;3.60;;
10116;SDS011;5098;48.792;9.012;2022-07-05T01:35:40;4.70;;;3.73;;
10116;SDS011;5098;48.792;9.012;2022-07-05T01:38:06;3.90;;;3.53;;
10116;SDS011;5098;48.792;9.012;2022-07-05T01:40:32;4.23;;;3.83;;
10116;SDS011;5098;48.792;9.012;2022-07-05T01:42:58;4.90;;;3.20;;
10116;SDS011;5098;48.792;9.012;2022-07-05T01:45:24;5.13;;;3.57;;
10116;SDS011;5098;48.792;9.012;2022-07-05T01:48:10;4.20;;;3.90;;
10116;SDS011;5098;48.792;9.012;2022-07-05T01:50:47;4.00;;;3.70;;
10116;SDS011;5098;48.792;9.012;2022-07-05T01:53:29;3.60;;;3.20;;
10116;SDS011;5098;48.792;9.012;2022-07-05T01:55:56;4.20;;;3.03;;
10116;SDS011;5098;48.792;9.012;2022-07-05T01:58:23;3.90;;;3.60;;
10116;SDS011;5098;48.792;9.012;2022-07-05T02:00:50;4.63;;;3.83;;
10116;SDS011;5098;48.792;9.012;2022-07-05T02:03:16;3.80;;;3.50;;
10116;SDS011;5098;48.792;9.012;2022-07-05T02:05:43;5.30;;;3.43;;
10116;SDS011;5098;48.792;9.012;2022-07-05T02:08:10;4.73;;;3.70;;
10116;SDS011;5098;48.792;9.012;2022-07-05T02:10:36;4.20;;;3.80;;
10116;SDS011;5098;48.792;9.012;2022-07-05T02:13:02;4.00;;;3.70;;
10116;SDS011;5098;48.792;9.012;2022-07-05T02:15:32;3.70;;;3.40;;
10116;SDS011;5098;48.792;9.012;2022-07-05T02:17:59;3.10;;;2.80;;
10116;SDS011;5098;48.792;9.012;2022-07-05T02:20:26;3.73;;;3.40;;
10116;SDS011;5098;48.792;9.012;2022-07-05T02:22:52;4.73;;;3.57;;
10116;SDS011;5098;48.792;9.012;2022-07-05T02:25:18;3.97;;;3.43;;
10116;SDS011;5098;48.792;9.012;2022-07-05T02:27:44;4.10;;;3.60;;
10116;SDS011;5098;48.792;9.012;2022-07-05T02:30:10;4.30;;;3.90;;
10116;SDS011;5098;48.792;9.012;2022-07-05T02:32:37;5.03;;;3.40;;
10116;SDS011;5098;48.792;9.012;2022-07-05T02:35:03;4.13;;;3.73;;
10116;SDS011;5098;48.792;9.012;2022-07-05T02:37:29;5.13;;;3.70;;
10116;SDS011;5098;48.792;9.012;2022-07-05T02:39:55;4.00;;;3.60;;
10116;SDS011;5098;48.792;9.012;2022-07-05T02:42:21;4.10;;;3.60;;
10116;SDS011;5098;48.792;9.012;2022-07-05T02:44:47;3.97;;;3.67;;
10116;SDS011;5098;48.792;9.012;2022-07-05T02:47:13;4.67;;;3.80;;
10116;SDS011;5098;48.792;9.012;2022-07-05T02:49:39;4.63;;;3.97;;
10116;SDS011;5098;48.792;9.012;2022-07-05T02:52:05;3.80;;;3.50;;
10116;SDS011;5098;48.792;9.012;2022-07-05T02:54:31;4.93;;;4.07;;
10116;SDS011;5098;48.792;9.012;2022-07-05T02:56:58;3.67;;;3.37;;
10116;SDS011;5098;48.792;9.012;2022-07-05T02:59:24;5.97;;;4.60;;
10116;SDS011;5098;48.792;9.012;2022-07-05T03:01:51;3.23;;;2.93;;
10116;SDS011;5098;48.792;9.012;2022-07-05T03:04:17;3.70;;;3.40;;
10116;SDS011;5098;48.792;9.012;2022-07-05T03:06:43;4.87;;;4.00;;
10116;SDS011;5098;48.792;9.012;2022-07-05T03:09:09;4.50;;;3.53;;
10116;SDS011;5098;48.792;9.012;2022-07-05T03:11:36;4.40;;;3.70;;
10116;SDS011;5098;48.792;9.012;2022-07-05T03:14:02;3.90;;;3.60;;
10116;SDS011;5098;48.792;9.012;2022-07-05T03:16:28;3.97;;;3.40;;
10116;SDS011;5098;48.792;9.012;2022-07-05T03:18:54;3.80;;;3.50;;
10116;SDS011;5098;48.792;9.012;2022-07-05T03:21:20;4.93;;;4.53;;
10116;SDS011;5098;48.792;9.012;2022-07-05T03:23:47;3.77;;;3.47;;
10116;SDS011;5098;48.792;9.012;2022-07-05T03:26:13;3.53;;;3.30;;
10116;SDS011;5098;48.792;9.012;2022-07-05T03:28:39;5.13;;;3.70;;
10116;SDS011;5098;48.792;9.012;2022-07-05T03:31:05;3.73;;;3.30;;
10116;SDS011;5098;48.792;9.012;2022-07-05T03:33:31;4.10;;;3.63;;
10116;SDS011;5098;48.792;9.012;2022-07-05T03:35:57;5.63;;;3.73;;
10116;SDS011;5098;48.792;9.012;2022-07-05T03:38:23;3.90;;;3.60;;
10116;SDS011;5098;48.792;9.012;2022-07-05T03:40:50;3.70;;;3.43;;
10116;SDS011;5098;48.792;9.012;2022-07-05T03:43:16;4.60;;;3.80;;
10116;SDS011;5098;48.792;9.012;2022-07-05T03:45:42;5.87;;;3.57;;
10116;SDS011;5098;48.792;9.012;2022-07-05T03:48:08;4.77;;;3.97;;
10116;SDS011;5098;48.792;9.012;2022-07-05T03:50:34;3.80;;;3.50;;
10116;SDS011;5098;48.792;9.012;2022-07-05T03:53:00;6.30;;;4.30;;
10116;SDS011;5098;48.792;9.012;2022-07-05T03:55:26;3.90;;;3.10;;
10116;SDS011;5098;48.792;9.012;2022-07-05T03:57:52;3.70;;;3.40;;
10116;SDS011;5098;48.792;9.012;2022-07-05T04:00:18;4.57;;;4.17;;
10116;SDS011;5098;48.792;9.012;2022-07-05T04:02:44;4.93;;;4.43;;
10116;SDS011;5098;48.792;9.012;2022-07-05T04:05:10;4.53;;;3.60;;
10116;SDS011;5098;48.792;9.012;2022-07-05T04:07:47;5.27;;;3.33;;
10116;SDS011;5098;48.792;9.012;2022-07-05T04:10:13;4.93;;;3.70;;
10116;SDS011;5098;48.792;9.012;2022-07-05T04:12:39;3.87;;;3.47;;
10116;SDS011;5098;48.792;9.012;2022-07-05T04:15:06;4.77;;;3.80;;
10116;SDS011;5098;48.792;9.012;2022-07-05T04:17:32;4.97;;;4.57;;
10116;SDS011;5098;48.792;9.012;2022-07-05T04:19:58;4.10;;;3.80;;
10116;SDS011;5098;48.792;9.012;2022-07-05T04:22:24;3.93;;;3.63;;
10116;SDS011;5098;48.792;9.012;2022-07-05T04:24:50;4.50;;;4.10;;
10116;SDS011;5098;48.792;9.012;2022-07-05T04:27:35;4.20;;;3.80;;
10116;SDS011;5098;48.792;9.012;2022-07-05T04:30:01;4.83;;;3.93;;
10116;SDS011;5098;48.792;9.012;2022-07-05T04:32:27;4.00;;;3.70;;
10116;SDS011;5098;48.792;9.012;2022-07-05T04:34:53;6.13;;;4.07;;
10116;SDS011;5098;48.792;9.012;2022-07-05T04:37:19;5.50;;;3.90;;
10116;SDS011;5098;48.792;9.012;2022-07-05T04:39:45;3.20;;;3.00;;
10116;SDS011;5098;48.792;9.012;2022-07-05T04:42:11;7.00;;;3.90;;
10116;SDS011;5098;48.792;9.012;2022-07-05T04:44:37;4.10;;;3.80;;
10116;SDS011;5098;48.792;9.012;2022-07-05T04:47:03;3.80;;;3.50;;
10116;SDS011;5098;48.792;9.012;2022-07-05T04:49:29;4.20;;;3.40;;
10116;SDS011;5098;48.792;9.012;2022-07-05T04:51:56;4.83;;;3.13;;
10116;SDS011;5098;48.792;9.012;2022-07-05T04:54:22;4.17;;;3.50;;
10116;SDS011;5098;48.792;9.012;2022-07-05T04:56:48;4.03;;;3.20;;
10116;SDS011;5098;48.792;9.012;2022-07-05T04:59:14;4.03;;;3.73;;
10116;SDS011;5098;48.792;9.012;2022-07-05T05:01:40;4.17;;;3.73;;
10116;SDS011;5098;48.792;9.012;2022-07-05T05:04:06;4.90;;;4.50;;
10116;SDS011;5098;48.792;9.012;2022-07-05T05:06:32;4.17;;;3.87;;
10116;SDS011;5098;48.792;9.012;2022-07-05T05:08:58;4.50;;;3.90;;
10116;SDS011;5098;48.792;9.012;2022-07-05T05:11:24;9.43;;;4.10;;
10116;SDS011;5098;48.792;9.012;2022-07-05T05:13:50;4.10;;;3.80;;
10116;SDS011;5098;48.792;9.012;2022-07-05T05:16:16;3.93;;;3.63;;
10116;SDS011;5098;48.792;9.012;2022-07-05T05:18:42;5.00;;;4.30;;
10116;SDS011;5098;48.792;9.012;2022-07-05T05:21:08;4.93;;;4.17;;
10116;SDS011;5098;48.792;9.012;2022-07-05T05:23:34;4.17;;;3.80;;
10116;SDS011;5098;48.792;9.012;2022-07-05T05:26:00;5.53;;;4.73;;
10116;SDS011;5098;48.792;9.012;2022-07-05T05:28:26;4.20;;;3.80;;
10116;SDS011;5098;48.792;9.012;2022-07-05T05:30:53;5.40;;;3.17;;
10116;SDS011;5098;48.792;9.012;2022-07-05T05:33:19;4.10;;;3.73;;
10116;SDS011;5098;48.792;9.012;2022-07-05T05:35:45;5.90;;;3.80;;
10116;SDS011;5098;48.792;9.012;2022-07-05T05:38:11;4.17;;;3.63;;
10116;SDS011;5098;48.792;9.012;2022-07-05T05:40:37;4.77;;;4.20;;
10116;SDS011;5098;48.792;9.012;2022-07-05T05:43:03;3.40;;;3.20;;
10116;SDS011;5098;48.792;9.012;2022-07-05T05:45:30;6.53;;;3.97;;
10116;SDS011;5098;48.792;9.012;2022-07-05T05:47:56;3.90;;;3.20;;
10116;SDS011;5098;48.792;9.012;2022-07-05T05:50:27;3.50;;;3.20;;
10116;SDS011;5098;48.792;9.012;2022-07-05T05:52:53;3.70;;;3.40;;
10116;SDS011;5098;48.792;9.012;2022-07-05T05:55:20;3.60;;;3.30;;
10116;SDS011;5098;48.792;9.012;2022-07-05T05:57:46;9.53;;;3.47;;
10116;SDS011;5098;48.792;9.012;2022-07-05T06:00:13;5.33;;;3.33;;
10116;SDS011;5098;48.792;9.012;2022-07-05T06:02:40;3.27;;;2.97;;
10116;SDS011;5098;48.792;9.012;2022-07-05T06:05:06;3.37;;;3.07;;
10116;SDS011;5098;48.792;9.012;2022-07-05T06:07:42;6.13;;;3.13;;
10116;SDS011;5098;48.792;9.012;2022-07-05T06:10:09;5.73;;;3.37;;
10116;SDS011;5098;48.792;9.012;2022-07-05T06:12:35;3.93;;;3.30;;
10116;SDS011;5098;48.792;9.012;2022-07-05T06:15:01;5.03;;;2.80;;
10116;SDS011;5098;48.792;9.012;2022-07-05T06:17:27;2.90;;;2.60;;
10116;SDS011;5098;48.792;9.012;2022-07-05T06:19:53;3.23;;;2.50;;
10116;SDS011;5098;48.792;9.012;2022-07-05T06:22:19;7.90;;;2.67;;
10116;SDS011;5098;48.792;9.012;2022-07-05T06:24:45;3.20;;;2.40;;
10116;SDS011;5098;48.792;9.012;2022-07-05T06:27:11;2.93;;;2.33;;
10116;SDS011;5098;48.792;9.012;2022-07-05T06:29:37;4.47;;;2.00;;
10116;SDS011;5098;48.792;9.012;2022-07-05T06:32:03;3.00;;;2.43;;
10116;SDS011;5098;48.792;9.012;2022-07-05T06:34:29;2.00;;;1.80;;
10116;SDS011;5098;48.792;9.012;2022-07-05T06:36:55;3.00;;;2.03;;
10116;SDS011;5098;48.792;9.012;2022-07-05T06:39:21;2.63;;;2.07;;
10116;SDS011;5098;48.792;9.012;2022-07-05T06:41:48;3.37;;;2.10;;
10116;SDS011;5098;48.792;9.012;2022-07-05T06:44:14;4.63;;;1.97;;
10116;SDS011;5098;48.792;9.012;2022-07-05T06:46:40;4.47;;;2.07;;
10116;SDS011;5098;48.792;9.012;2022-07-05T06:49:06;3.27;;;2.07;;
10116;SDS011;5098;48.792;9.012;2022-07-05T06:51:32;4.77;;;2.00;;
10116;SDS011;5098;48.792;9.012;2022-07-05T06:53:58;2.20;;;1.77;;
10116;SDS011;5098;48.792;9.012;2022-07-05T06:56:24;4.53;;;1.90;;
10116;SDS011;5098;48.792;9.012;2022-07-05T06:58:50;1.70;;;1.50;;
10116;SDS011;5098;48.792;9.012;2022-07-05T07:01:16;3.60;;;1.80;;
10116;SDS011;5098;48.792;9.012;2022-07-05T07:03:42;2.80;;;1.70;;
10116;SDS011;5098;48.792;9.012;2022-07-05T07:06:08;2.47;;;1.93;;
10116;SDS011;5098;48.792;9.012;2022-07-05T07:08:34;2.27;;;1.70;;
10116;SDS011;5098;48.792;9.012;2022-07-05T07:11:19;1.70;;;1.60;;
10116;SDS011;5098;48.792;9.012;2022-07-05T07:13:45;2.30;;;1.87;;
10116;SDS011;5098;48.792;9.012;2022-07-05T07:16:11;2.23;;;1.87;;
10116;SDS011;5098;48.792;9.012;2022-07-05T07:18:37;2.50;;;2.00;;
10116;SDS011;5098;48.792;9.012;2022-07-05T07:21:04;3.13;;;1.97;;
10116;SDS011;5098;48.792;9.012;2022-07-05T07:23:30;1.93;;;1.67;;
10116;SDS011;5098;48.792;9.012;2022-07-05T07:25:56;3.40;;;1.80;;
10116;SDS011;5098;48.792;9.012;2022-07-05T07:28:22;5.13;;;1.70;;
10116;SDS011;5098;48.792;9.012;2022-07-05T07:30:49;1.77;;;1.40;;
10116;SDS011;5098;48.792;9.012;2022-07-05T07:33:15;2.40;;;1.50;;
10116;SDS011;5098;48.792;9.012;2022-07-05T07:35:41;1.60;;;1.50;;
10116;SDS011;5098;48.792;9.012;2022-07-05T07:38:07;2.20;;;1.40;;
10116;SDS011;5098;48.792;9.012;2022-07-05T07:40:33;3.40;;;1.70;;
10116;SDS011;5098;48.792;9.012;2022-07-05T07:42:59;2.00;;;1.40;;
10116;SDS011;5098;48.792;9.012;2022-07-05T07:45:25;3.63;;;1.60;;
10116;SDS011;5098;48.792;9.012;2022-07-05T07:47:53;2.80;;;1.87;;
10116;SDS011;5098;48.792;9.012;2022-07-05T07:50:19;2.33;;;1.80;;
10116;SDS011;5098;48.792;9.012;2022-07-05T07:52:45;2.10;;;1.60;;
10116;SDS011;5098;48.792;9.012;2022-07-05T07:55:11;1.97;;;1.47;;
10116;SDS011;5098;48.792;9.012;2022-07-05T07:57:37;2.50;;;1.57;;
10116;SDS011;5098;48.792;9.012;2022-07-05T08:00:03;2.10;;;1.90;;
10116;SDS011;5098;48.792;9.012;2022-07-05T08:02:29;4.50;;;1.70;;
10116;SDS011;5098;48.792;9.012;2022-07-05T08:04:55;2.03;;;1.80;;
10116;SDS011;5098;48.792;9.012;2022-07-05T08:07:23;2.50;;;1.53;;
10116;SDS011;5098;48.792;9.012;2022-07-05T08:09:49;4.43;;;2.17;;
10116;SDS011;5098;48.792;9.012;2022-07-05T08:12:17;3.00;;;1.90;;
10116;SDS011;5098;48.792;9.012;2022-07-05T08:14:43;3.47;;;1.80;;
10116;SDS011;5098;48.792;9.012;2022-07-05T08:17:09;2.33;;;1.70;;
10116;SDS011;5098;48.792;9.012;2022-07-05T08:19:35;1.90;;;1.70;;
10116;SDS011;5098;48.792;9.012;2022-07-05T08:22:20;2.27;;;1.87;;
10116;SDS011;5098;48.792;9.012;2022-07-05T08:24:46;3.10;;;1.80;;
10116;SDS011;5098;48.792;9.012;2022-07-05T08:27:13;4.50;;;2.00;;
10116;SDS011;5098;48.792;9.012;2022-07-05T08:29:39;1.90;;;1.67;;
10116;SDS011;5098;48.792;9.012;2022-07-05T08:32:05;2.43;;;1.70;;
10116;SDS011;5098;48.792;9.012;2022-07-05T08:34:31;3.40;;;1.60;;
10116;SDS011;5098;48.792;9.012;2022-07-05T08:36:58;2.17;;;1.50;;
10116;SDS011;5098;48.792;9.012;2022-07-05T08:39:24;2.53;;;2.00;;
10116;SDS011;5098;48.792;9.012;2022-07-05T08:41:51;2.10;;;1.63;;
10116;SDS011;5098;48.792;9.012;2022-07-05T08:44:20;3.00;;;2.20;;
10116;SDS011;5098;48.792;9.012;2022-07-05T08:46:47;4.60;;;1.80;;
10116;SDS011;5098;48.792;9.012;2022-07-05T08:49:15;3.47;;;1.80;;
10116;SDS011;5098;48.792;9.012;2022-07-05T08:51:45;2.87;;;1.70;;
10116;SDS011;5098;48.792;9.012;2022-07-05T08:54:12;8.10;;;1.60;;
10116;SDS011;5098;48.792;9.012;2022-07-05T08:56:42;4.00;;;2.20;;
10116;SDS011;5098;48.792;9.012;2022-07-05T08:59:08;2.67;;;1.60;;
10116;SDS011;5098;48.792;9.012;2022-07-05T09:01:35;2.00;;;1.50;;
10116;SDS011;5098;48.792;9.012;2022-07-05T09:04:05;2.73;;;1.67;;
10116;SDS011;5098;48.792;9.012;2022-07-05T09:06:32;2.13;;;1.60;;
10116;SDS011;5098;48.792;9.012;2022-07-05T09:09:00;1.83;;;1.60;;
10116;SDS011;5098;48.792;9.012;2022-07-05T09:11:37;3.20;;;1.70;;
10116;SDS011;5098;48.792;9.012;2022-07-05T09:14:04;2.93;;;1.50;;
10116;SDS011;5098;48.792;9.012;2022-07-05T09:16:31;1.97;;;1.77;;
10116;SDS011;5098;48.792;9.012;2022-07-05T09:19:03;2.93;;;1.80;;
10116;SDS011;5098;48.792;9.012;2022-07-05T09:21:30;2.60;;;1.67;;
10116;SDS011;5098;48.792;9.012;2022-07-05T09:23:56;2.23;;;1.50;;
10116;SDS011;5098;48.792;9.012;2022-07-05T09:26:31;1.70;;;1.50;;
10116;SDS011;5098;48.792;9.012;2022-07-05T09:28:58;2.83;;;1.73;;
10116;SDS011;5098;48.792;9.012;2022-07-05T09:31:34;2.50;;;1.67;;
10116;SDS011;5098;48.792;9.012;2022-07-05T09:34:04;1.67;;;1.43;;
10116;SDS011;5098;48.792;9.012;2022-07-05T09:39:12;1.90;;;1.47;;
10116;SDS011;5098;48.792;9.012;2022-07-05T09:41:38;2.13;;;1.63;;
10116;SDS011;5098;48.792;9.012;2022-07-05T09:44:04;3.33;;;1.87;;
10116;SDS011;5098;48.792;9.012;2022-07-05T09:46:31;2.50;;;1.80;;
10116;SDS011;5098;48.792;9.012;2022-07-05T09:48:57;2.37;;;1.73;;
10116;SDS011;5098;48.792;9.012;2022-07-05T09:51:23;5.10;;;2.03;;
10116;SDS011;5098;48.792;9.012;2022-07-05T09:53:53;1.87;;;1.47;;
10116;SDS011;5098;48.792;9.012;2022-07-05T09:56:20;4.67;;;1.63;;
10116;SDS011;5098;48.792;9.012;2022-07-05T09:58:47;4.10;;;2.00;;
10116;SDS011;5098;48.792;9.012;2022-07-05T10:01:22;2.10;;;1.90;;
10116;SDS011;5098;48.792;9.012;2022-07-05T10:03:52;2.63;;;1.80;;
10116;SDS011;5098;48.792;9.012;2022-07-05T10:06:23;2.63;;;2.27;;
10116;SDS011;5098;48.792;9.012;2022-07-05T10:08:49;2.10;;;1.50;;
10116;SDS011;5098;48.792;9.012;2022-07-05T10:11:19;2.80;;;1.83;;
10116;SDS011;5098;48.792;9.012;2022-07-05T10:13:50;2.33;;;1.53;;
10116;SDS011;5098;48.792;9.012;2022-07-05T10:16:16;3.50;;;1.70;;
10116;SDS011;5098;48.792;9.012;2022-07-05T10:18:46;2.50;;;1.67;;
10116;SDS011;5098;48.792;9.012;2022-07-05T10:21:13;2.30;;;1.63;;
10116;SDS011;5098;48.792;9.012;2022-07-05T10:23:43;3.00;;;2.00;;
10116;SDS011;5098;48.792;9.012;2022-07-05T10:26:11;2.60;;;1.70;;
10116;SDS011;5098;48.792;9.012;2022-07-05T10:28:38;2.80;;;1.30;;
10116;SDS011;5098;48.792;9.012;2022-07-05T10:31:05;1.93;;;1.63;;
10116;SDS011;5098;48.792;9.012;2022-07-05T10:33:33;3.00;;;1.63;;
10116;SDS011;5098;48.792;9.012;2022-07-05T10:36:00;1.77;;;1.33;;
10116;SDS011;5098;48.792;9.012;2022-07-05T10:38:26;2.03;;;1.50;;
10116;SDS011;5098;48.792;9.012;2022-07-05T10:40:53;3.03;;;1.70;;
10116;SDS011;5098;48.792;9.012;2022-07-05T10:43:23;3.93;;;1.80;;
10116;SDS011;5098;48.792;9.012;2022-07-05T10:45:50;3.10;;;1.50;;
10116;SDS011;5098;48.792;9.012;2022-07-05T10:48:29;2.10;;;1.53;;
10116;SDS011;5098;48.792;9.012;2022-07-05T10:53:22;1.60;;;1.40;;
10116;SDS011;5098;48.792;9.012;2022-07-05T10:58:27;4.53;;;1.50;;
10116;SDS011;5098;48.792;9.012;2022-07-05T11:03:40;2.10;;;1.50;;
10116;SDS011;5098;48.792;9.012;2022-07-05T11:06:07;1.70;;;1.50;;
10116;SDS011;5098;48.792;9.012;2022-07-05T11:09:16;2.10;;;1.40;;
10116;SDS011;5098;48.792;9.012;2022-07-05T11:11:26;4.80;;;1.60;;
10116;SDS011;5098;48.792;9.012;2022-07-05T11:13:52;2.17;;;1.50;;
10116;SDS011;5098;48.792;9.012;2022-07-05T11:16:23;4.07;;;1.80;;
10116;SDS011;5098;48.792;9.012;2022-07-05T11:18:54;2.47;;;1.67;;
10116;SDS011;5098;48.792;9.012;2022-07-05T11:21:29;1.97;;;1.40;;
10116;SDS011;5098;48.792;9.012;2022-07-05T11:24:17;2.60;;;1.70;;
10116;SDS011;5098;48.792;9.012;2022-07-05T11:26:41;2.70;;;1.73;;
10116;SDS011;5098;48.792;9.012;2022-07-05T11:29:19;6.97;;;1.73;;
10116;SDS011;5098;48.792;9.012;2022-07-05T11:32:09;2.60;;;1.40;;
10116;SDS011;5098;48.792;9.012;2022-07-05T11:34:36;4.80;;;2.17;;
10116;SDS011;5098;48.792;9.012;2022-07-05T11:42:30;4.50;;;1.50;;
10116;SDS011;5098;48.792;9.012;2022-07-05T11:44:56;2.67;;;1.50;;
10116;SDS011;5098;48.792;9.012;2022-07-05T11:47:23;2.33;;;1.67;;
10116;SDS011;5098;48.792;9.012;2022-07-05T11:49:58;3.37;;;1.60;;
10116;SDS011;5098;48.792;9.012;2022-07-05T11:52:25;1.83;;;1.73;;
10116;SDS011;5098;48.792;9.012;2022-07-05T11:54:52;2.17;;;1.40;;
10116;SDS011;5098;48.792;9.012;2022-07-05T11:57:19;2.33;;;1.70;;
10116;SDS011;5098;48.792;9.012;2022-07-05T11:59:46;2.00;;;1.80;;
10116;SDS011;5098;48.792;9.012;2022-07-05T12:02:12;2.47;;;1.50;;
10116;SDS011;5098;48.792;9.012;2022-07-05T12:04:38;3.80;;;2.53;;
10116;SDS011;5098;48.792;9.012;2022-07-05T12:07:05;2.70;;;1.77;;
10116;SDS011;5098;48.792;9.012;2022-07-05T12:09:32;2.73;;;1.70;;
10116;SDS011;5098;48.792;9.012;2022-07-05T12:12:20;2.20;;;1.70;;
10116;SDS011;5098;48.792;9.012;2022-07-05T12:15:06;2.83;;;2.10;;
10116;SDS011;5098;48.792;9.012;2022-07-05T12:17:35;2.40;;;1.57;;
10116;SDS011;5098;48.792;9.012;2022-07-05T12:20:02;2.00;;;1.70;;
10116;SDS011;5098;48.792;9.012;2022-07-05T12:22:29;1.83;;;1.40;;
10116;SDS011;5098;48.792;9.012;2022-07-05T12:24:55;1.97;;;1.60;;
10116;SDS011;5098;48.792;9.012;2022-07-05T12:27:23;2.50;;;1.53;;
10116;SDS011;5098;48.792;9.012;2022-07-05T12:29:49;3.50;;;1.60;;
10116;SDS011;5098;48.792;9.012;2022-07-05T12:32:15;1.93;;;1.53;;
10116;SDS011;5098;48.792;9.012;2022-07-05T12:34:41;2.90;;;1.77;;
10116;SDS011;5098;48.792;9.012;2022-07-05T12:37:07;3.17;;;1.60;;
10116;SDS011;5098;48.792;9.012;2022-07-05T12:39:34;2.53;;;1.90;;
10116;SDS011;5098;48.792;9.012;2022-07-05T12:42:00;2.07;;;1.60;;
10116;SDS011;5098;48.792;9.012;2022-07-05T12:44:26;3.70;;;1.77;;
10116;SDS011;5098;48.792;9.012;2022-07-05T12:46:52;3.30;;;1.40;;
10116;SDS011;5098;48.792;9.012;2022-07-05T12:49:29;3.00;;;1.43;;
10116;SDS011;5098;48.792;9.012;2022-07-05T12:51:55;2.10;;;1.30;;
10116;SDS011;5098;48.792;9.012;2022-07-05T12:54:29;1.60;;;1.40;;
10116;SDS011;5098;48.792;9.012;2022-07-05T12:57:16;3.03;;;1.43;;
10116;SDS011;5098;48.792;9.012;2022-07-05T13:05:01;3.83;;;1.57;;
10116;SDS011;5098;48.792;9.012;2022-07-05T13:07:27;4.60;;;1.80;;
10116;SDS011;5098;48.792;9.012;2022-07-05T13:09:53;3.60;;;1.67;;
10116;SDS011;5098;48.792;9.012;2022-07-05T13:12:19;1.77;;;1.50;;
10116;SDS011;5098;48.792;9.012;2022-07-05T13:14:47;2.70;;;2.00;;
10116;SDS011;5098;48.792;9.012;2022-07-05T13:17:14;1.80;;;1.47;;
10116;SDS011;5098;48.792;9.012;2022-07-05T13:19:41;4.40;;;1.70;;
10116;SDS011;5098;48.792;9.012;2022-07-05T13:22:07;2.40;;;1.90;;
10116;SDS011;5098;48.792;9.012;2022-07-05T13:24:33;2.97;;;1.80;;
10116;SDS011;5098;48.792;9.012;2022-07-05T13:27:00;3.40;;;1.77;;
10116;SDS011;5098;48.792;9.012;2022-07-05T13:29:26;7.07;;;1.73;;
10116;SDS011;5098;48.792;9.012;2022-07-05T13:31:52;3.43;;;1.80;;
10116;SDS011;5098;48.792;9.012;2022-07-05T13:34:19;2.17;;;1.97;;
10116;SDS011;5098;48.792;9.012;2022-07-05T13:36:48;2.77;;;1.97;;
10116;SDS011;5098;48.792;9.012;2022-07-05T13:39:15;2.80;;;1.87;;
10116;SDS011;5098;48.792;9.012;2022-07-05T13:41:41;2.30;;;1.70;;
10116;SDS011;5098;48.792;9.012;2022-07-05T13:44:07;5.60;;;1.80;;
10116;SDS011;5098;48.792;9.012;2022-07-05T13:46:33;2.90;;;1.63;;
10116;SDS011;5098;48.792;9.012;2022-07-05T13:49:00;5.70;;;1.90;;
10116;SDS011;5098;48.792;9.012;2022-07-05T13:51:26;1.97;;;1.67;;
10116;SDS011;5098;48.792;9.012;2022-07-05T13:53:52;2.40;;;2.20;;
10116;SDS011;5098;48.792;9.012;2022-07-05T13:56:18;2.30;;;1.57;;
10116;SDS011;5098;48.792;9.012;2022-07-05T13:58:44;2.97;;;1.67;;
10116;SDS011;5098;48.792;9.012;2022-07-05T14:01:10;3.67;;;1.97;;
10116;SDS011;5098;48.792;9.012;2022-07-05T14:03:36;2.43;;;1.70;;
10116;SDS011;5098;48.792;9.012;2022-07-05T14:06:02;4.27;;;1.90;;
10116;SDS011;5098;48.792;9.012;2022-07-05T14:08:29;3.03;;;1.50;;
10116;SDS011;5098;48.792;9.012;2022-07-05T14:10:55;4.20;;;1.87;;
10116;SDS011;5098;48.792;9.012;2022-07-05T14:13:26;2.57;;;1.40;;
10116;SDS011;5098;48.792;9.012;2022-07-05T14:15:54;3.17;;;1.90;;
10116;SDS011;5098;48.792;9.012;2022-07-05T14:18:21;2.67;;;1.40;;
10116;SDS011;5098;48.792;9.012;2022-07-05T14:20:49;1.90;;;1.60;;
10116;SDS011;5098;48.792;9.012;2022-07-05T14:23:16;1.80;;;1.50;;
10116;SDS011;5098;48.792;9.012;2022-07-05T14:25:42;3.37;;;2.20;;
10116;SDS011;5098;48.792;9.012;2022-07-05T14:28:08;4.00;;;2.00;;
10116;SDS011;5098;48.792;9.012;2022-07-05T14:33:01;3.10;;;1.77;;
10116;SDS011;5098;48.792;9.012;2022-07-05T14:35:27;3.73;;;2.00;;
10116;SDS011;5098;48.792;9.012;2022-07-05T14:37:53;1.63;;;1.53;;
10116;SDS011;5098;48.792;9.012;2022-07-05T14:40:20;2.20;;;1.60;;
10116;SDS011;5098;48.792;9.012;2022-07-05T14:42:49;2.33;;;1.80;;
10116;SDS011;5098;48.792;9.012;2022-07-05T14:45:15;2.10;;;1.63;;
10116;SDS011;5098;48.792;9.012;2022-07-05T14:47:41;3.03;;;1.73;;
10116;SDS011;5098;48.792;9.012;2022-07-05T14:50:07;2.53;;;1.73;;
10116;SDS011;5098;48.792;9.012;2022-07-05T14:52:33;2.40;;;1.90;;
10116;SDS011;5098;48.792;9.012;2022-07-05T14:54:59;2.23;;;1.57;;
10116;SDS011;5098;48.792;9.012;2022-07-05T14:57:25;2.60;;;1.60;;
10116;SDS011;5098;48.792;9.012;2022-07-05T14:59:52;4.80;;;1.60;;
10116;SDS011;5098;48.792;9.012;2022-07-05T15:02:18;4.60;;;1.63;;
10116;SDS011;5098;48.792;9.012;2022-07-05T15:04:44;3.83;;;1.80;;
10116;SDS011;5098;48.792;9.012;2022-07-05T15:07:10;2.63;;;1.73;;
10116;SDS011;5098;48.792;9.012;2022-07-05T15:09:36;2.73;;;1.80;;
10116;SDS011;5098;48.792;9.012;2022-07-05T15:12:02;3.47;;;2.17;;
10116;SDS011;5098;48.792;9.012;2022-07-05T15:14:28;2.80;;;1.83;;
10116;SDS011;5098;48.792;9.012;2022-07-05T15:16:54;2.10;;;1.57;;
10116;SDS011;5098;48.792;9.012;2022-07-05T15:19:21;1.70;;;1.60;;
10116;SDS011;5098;48.792;9.012;2022-07-05T15:21:48;4.00;;;2.20;;
10116;SDS011;5098;48.792;9.012;2022-07-05T15:24:14;3.10;;;2.10;;